createdAt,value
2017-06-23T00:00:35.004Z,0
2017-06-23T00:01:35.025Z,0
2017-06-23T00:02:35.003Z,0
2017-06-23T00:03:35.007Z,0
2017-06-23T00:04:35.007Z,0
2017-06-23T00:05:35.032Z,0
2017-06-23T00:06:35.039Z,0
2017-06-23T00:07:35.001Z,0
2017-06-23T00:08:35.042Z,0
2017-06-23T00:09:35.047Z,0
2017-06-23T00:10:35.035Z,0
2017-06-23T00:11:35.026Z,0
2017-06-23T00:12:34.956Z,0
2017-06-23T00:13:35.044Z,0
2017-06-23T00:14:34.958Z,0
2017-06-23T00:15:35.036Z,0
2017-06-23T00:16:35.037Z,0
2017-06-23T00:17:35.028Z,0
2017-06-23T00:18:35.030Z,0
2017-06-23T00:19:35.029Z,0
2017-06-23T00:20:35.028Z,0
2017-06-23T00:21:35.039Z,0
2017-06-23T00:22:34.941Z,0
2017-06-23T00:23:34.942Z,0
2017-06-23T00:24:35.042Z,0
2017-06-23T00:25:35.144Z,0
2017-06-23T00:26:34.964Z,0
2017-06-23T00:27:35.035Z,0
2017-06-23T00:28:35.049Z,0
2017-06-23T00:29:35.057Z,0
2017-06-23T00:30:35.052Z,0
2017-06-23T00:31:35.054Z,0
2017-06-23T00:32:35.054Z,0
2017-06-23T00:33:35.057Z,0
2017-06-23T00:34:35.054Z,0
2017-06-23T00:35:34.959Z,0
2017-06-23T00:36:35.015Z,0
2017-06-23T00:37:35.063Z,0
2017-06-23T00:38:35.038Z,0
2017-06-23T00:39:35.035Z,0
2017-06-23T00:40:34.961Z,0
2017-06-23T00:41:35.015Z,0
2017-06-23T00:42:35.043Z,0
2017-06-23T00:43:34.960Z,0
2017-06-23T00:44:34.960Z,0
2017-06-23T00:45:35.029Z,0
2017-06-23T00:46:35.028Z,0
2017-06-23T00:47:35.030Z,0
2017-06-23T00:48:35.027Z,0
2017-06-23T00:49:35.030Z,0
2017-06-23T00:50:35.029Z,0
2017-06-23T00:51:35.031Z,0
2017-06-23T00:52:35.033Z,0
2017-06-23T00:53:35.030Z,0
2017-06-23T00:54:35.034Z,0
2017-06-23T00:55:35.033Z,0
2017-06-23T00:56:35.039Z,0
2017-06-23T00:57:35.036Z,0
2017-06-23T00:58:35.033Z,0
2017-06-23T00:59:35.034Z,0
2017-06-23T01:00:35.035Z,0
2017-06-23T01:01:35.037Z,0
2017-06-23T01:02:35.037Z,0
2017-06-23T01:03:35.034Z,0
2017-06-23T01:04:35.037Z,0
2017-06-23T01:05:35.036Z,0
2017-06-23T01:06:35.039Z,0
2017-06-23T01:07:35.036Z,0
2017-06-23T01:08:35.037Z,0
2017-06-23T01:09:35.040Z,0
2017-06-23T01:10:35.055Z,0
2017-06-23T01:11:35.041Z,0
2017-06-23T01:12:35.043Z,0
2017-06-23T01:13:35.039Z,0
2017-06-23T01:14:35.050Z,0
2017-06-23T01:15:35.043Z,0
2017-06-23T01:16:35.061Z,0
2017-06-23T01:17:35.064Z,0
2017-06-23T01:18:35.071Z,0
2017-06-23T01:19:35.085Z,0
2017-06-23T01:20:34.987Z,0
2017-06-23T01:21:35.069Z,0
2017-06-23T01:22:35.044Z,0
2017-06-23T01:23:35.067Z,0
2017-06-23T01:24:35.083Z,0
2017-06-23T01:25:35.077Z,0
2017-06-23T01:26:35.099Z,0
2017-06-23T01:27:35.000Z,0
2017-06-23T01:28:35.076Z,0
2017-06-23T01:29:35.082Z,0
2017-06-23T01:30:35.066Z,0
2017-06-23T01:31:34.996Z,0
2017-06-23T01:32:35.051Z,0
2017-06-23T01:33:35.089Z,0
2017-06-23T01:34:35.068Z,0
2017-06-23T01:35:35.088Z,0
2017-06-23T01:36:35.069Z,0
2017-06-23T01:37:35.069Z,0
2017-06-23T01:38:35.033Z,0
2017-06-23T01:39:35.068Z,0
2017-06-23T01:40:35.070Z,0
2017-06-23T01:41:35.073Z,0
2017-06-23T01:42:35.089Z,0
2017-06-23T01:43:34.989Z,0
2017-06-23T01:44:35.074Z,0
2017-06-23T01:45:35.075Z,0
2017-06-23T01:46:35.057Z,0
2017-06-23T01:47:35.061Z,0
2017-06-23T01:48:35.007Z,0
2017-06-23T01:49:35.100Z,0
2017-06-23T01:50:35.097Z,0
2017-06-23T01:51:35.087Z,0
2017-06-23T01:52:35.089Z,0
2017-06-23T01:53:35.106Z,0
2017-06-23T01:54:35.094Z,0
2017-06-23T01:55:35.087Z,0
2017-06-23T01:56:35.013Z,0
2017-06-23T01:57:35.083Z,0
2017-06-23T01:58:35.104Z,0
2017-06-23T01:59:35.055Z,0
2017-06-23T02:00:35.098Z,0
2017-06-23T02:01:35.066Z,0
2017-06-23T02:02:35.017Z,0
2017-06-23T02:03:35.099Z,0
2017-06-23T02:04:35.072Z,0
2017-06-23T02:05:35.098Z,0
2017-06-23T02:06:35.093Z,0
2017-06-23T02:07:35.119Z,0
2017-06-23T02:08:35.100Z,0
2017-06-23T02:09:35.076Z,0
2017-06-23T02:10:35.109Z,0
2017-06-23T02:11:35.095Z,0
2017-06-23T02:12:35.074Z,0
2017-06-23T02:13:35.015Z,0
2017-06-23T02:14:35.019Z,0
2017-06-23T02:15:35.100Z,0
2017-06-23T02:16:35.101Z,0
2017-06-23T02:17:35.092Z,0
2017-06-23T02:18:35.011Z,0
2017-06-23T02:19:35.082Z,0
2017-06-23T02:20:35.066Z,0
2017-06-23T02:21:35.015Z,4
2017-06-23T02:22:35.018Z,4
2017-06-23T02:23:35.101Z,4
2017-06-23T02:24:35.017Z,4
2017-06-23T02:25:35.101Z,4
2017-06-23T02:26:35.084Z,4
2017-06-23T02:27:35.182Z,8
2017-06-23T02:28:35.080Z,8
2017-06-23T02:29:35.082Z,12
2017-06-23T02:30:35.083Z,8
2017-06-23T02:31:35.087Z,12
2017-06-23T02:32:35.087Z,12
2017-06-23T02:33:35.083Z,20
2017-06-23T02:34:35.087Z,20
2017-06-23T02:35:35.087Z,24
2017-06-23T02:36:35.037Z,24
2017-06-23T02:37:35.039Z,28
2017-06-23T02:38:35.088Z,28
2017-06-23T02:39:35.123Z,28
2017-06-23T02:40:35.126Z,32
2017-06-23T02:41:35.122Z,36
2017-06-23T02:42:35.058Z,32
2017-06-23T02:43:35.119Z,36
2017-06-23T02:44:35.124Z,36
2017-06-23T02:45:35.043Z,36
2017-06-23T02:46:35.059Z,40
2017-06-23T02:47:35.073Z,44
2017-06-23T02:48:35.111Z,56
2017-06-23T02:49:35.122Z,52
2017-06-23T02:50:35.119Z,44
2017-06-23T02:51:35.028Z,48
2017-06-23T02:52:35.119Z,52
2017-06-23T02:53:35.223Z,68
2017-06-23T02:54:35.113Z,76
2017-06-23T02:55:35.057Z,88
2017-06-23T02:56:35.124Z,104
2017-06-23T02:57:35.088Z,116
2017-06-23T02:58:35.063Z,120
2017-06-23T02:59:35.187Z,136
2017-06-23T03:00:35.047Z,144
2017-06-23T03:01:35.136Z,160
2017-06-23T03:02:35.130Z,176
2017-06-23T03:03:35.127Z,188
2017-06-23T03:04:35.137Z,212
2017-06-23T03:05:35.139Z,236
2017-06-23T03:06:35.067Z,244
2017-06-23T03:07:35.141Z,240
2017-06-23T03:08:35.133Z,240
2017-06-23T03:09:35.050Z,264
2017-06-23T03:10:35.144Z,300
2017-06-23T03:11:35.145Z,348
2017-06-23T03:12:35.101Z,352
2017-06-23T03:13:35.136Z,368
2017-06-23T03:14:35.136Z,372
2017-06-23T03:15:35.144Z,360
2017-06-23T03:16:35.137Z,328
2017-06-23T03:17:35.073Z,284
2017-06-23T03:18:35.131Z,272
2017-06-23T03:19:35.055Z,268
2017-06-23T03:20:35.148Z,284
2017-06-23T03:21:35.059Z,304
2017-06-23T03:22:35.142Z,356
2017-06-23T03:23:35.077Z,452
2017-06-23T03:24:35.107Z,504
2017-06-23T03:25:35.064Z,464
2017-06-23T03:26:35.117Z,440
2017-06-23T03:27:35.118Z,412
2017-06-23T03:28:35.119Z,476
2017-06-23T03:29:35.122Z,636
2017-06-23T03:30:35.118Z,720
2017-06-23T03:31:35.120Z,788
2017-06-23T03:32:35.118Z,744
2017-06-23T03:33:35.119Z,672
2017-06-23T03:34:35.121Z,612
2017-06-23T03:35:35.120Z,624
2017-06-23T03:36:35.157Z,608
2017-06-23T03:37:35.117Z,624
2017-06-23T03:38:35.071Z,624
2017-06-23T03:39:35.230Z,636
2017-06-23T03:40:35.157Z,744
2017-06-23T03:41:35.152Z,740
2017-06-23T03:42:35.148Z,688
2017-06-23T03:43:35.158Z,616
2017-06-23T03:44:35.160Z,636
2017-06-23T03:45:35.089Z,736
2017-06-23T03:46:35.147Z,912
2017-06-23T03:47:35.071Z,1160
2017-06-23T03:48:35.090Z,1164
2017-06-23T03:49:35.071Z,1064
2017-06-23T03:50:35.164Z,1056
2017-06-23T03:51:35.071Z,1056
2017-06-23T03:52:35.170Z,1112
2017-06-23T03:53:35.160Z,1092
2017-06-23T03:54:35.158Z,1100
2017-06-23T03:55:35.166Z,1148
2017-06-23T03:56:35.125Z,1124
2017-06-23T03:57:35.123Z,1176
2017-06-23T03:58:35.122Z,1196
2017-06-23T03:59:35.123Z,1176
2017-06-23T04:00:35.130Z,1200
2017-06-23T04:01:35.127Z,1216
2017-06-23T04:02:35.122Z,1156
2017-06-23T04:03:35.127Z,1216
2017-06-23T04:04:35.128Z,1188
2017-06-23T04:05:35.126Z,1236
2017-06-23T04:06:35.134Z,1344
2017-06-23T04:07:35.087Z,1452
2017-06-23T04:08:35.169Z,1836
2017-06-23T04:09:35.132Z,2196
2017-06-23T04:10:35.172Z,1900
2017-06-23T04:11:35.168Z,2016
2017-06-23T04:12:35.151Z,1972
2017-06-23T04:13:35.163Z,2096
2017-06-23T04:14:35.185Z,2456
2017-06-23T04:15:35.155Z,2556
2017-06-23T04:16:35.274Z,2996
2017-06-23T04:17:35.077Z,2540
2017-06-23T04:18:35.081Z,2836
2017-06-23T04:19:35.115Z,3320
2017-06-23T04:20:35.174Z,3472
2017-06-23T04:21:35.073Z,3944
2017-06-23T04:22:35.122Z,3880
2017-06-23T04:23:35.160Z,4504
2017-06-23T04:24:35.181Z,5156
2017-06-23T04:25:35.117Z,5024
2017-06-23T04:26:35.084Z,4604
2017-06-23T04:27:35.173Z,4288
2017-06-23T04:28:35.159Z,4056
2017-06-23T04:29:35.164Z,4084
2017-06-23T04:30:35.167Z,4220
2017-06-23T04:31:35.100Z,3472
2017-06-23T04:32:35.079Z,3172
2017-06-23T04:33:35.163Z,3580
2017-06-23T04:34:35.171Z,3552
2017-06-23T04:35:35.161Z,3552
2017-06-23T04:36:35.269Z,3248
2017-06-23T04:37:35.296Z,3064
2017-06-23T04:38:35.170Z,3024
2017-06-23T04:39:35.145Z,2852
2017-06-23T04:40:35.188Z,2796
2017-06-23T04:41:35.178Z,2780
2017-06-23T04:42:35.184Z,3004
2017-06-23T04:43:35.185Z,2768
2017-06-23T04:44:35.172Z,2288
2017-06-23T04:45:35.103Z,2256
2017-06-23T04:46:35.153Z,2560
2017-06-23T04:47:35.160Z,2952
2017-06-23T04:48:35.256Z,3156
2017-06-23T04:49:35.158Z,3152
2017-06-23T04:50:35.156Z,3104
2017-06-23T04:51:35.162Z,3448
2017-06-23T04:52:35.156Z,3864
2017-06-23T04:53:35.158Z,4696
2017-06-23T04:54:35.160Z,5220
2017-06-23T04:55:35.162Z,5064
2017-06-23T04:56:35.158Z,4920
2017-06-23T04:57:35.242Z,5120
2017-06-23T04:58:35.107Z,5396
2017-06-23T04:59:35.201Z,5720
2017-06-23T05:00:35.094Z,5900
2017-06-23T05:01:35.105Z,6236
2017-06-23T05:02:35.107Z,5900
2017-06-23T05:03:35.093Z,6756
2017-06-23T05:04:35.106Z,7352
2017-06-23T05:05:35.107Z,8008
2017-06-23T05:06:35.107Z,8552
2017-06-23T05:07:35.183Z,8000
2017-06-23T05:08:35.192Z,6316
2017-06-23T05:09:35.182Z,6444
2017-06-23T05:10:35.185Z,8100
2017-06-23T05:11:35.180Z,8468
2017-06-23T05:12:35.189Z,9352
2017-06-23T05:13:35.186Z,9164
2017-06-23T05:14:35.291Z,7980
2017-06-23T05:15:35.184Z,8696
2017-06-23T05:16:35.189Z,9620
2017-06-23T05:17:35.203Z,10080
2017-06-23T05:18:35.195Z,9808
2017-06-23T05:19:35.116Z,9956
2017-06-23T05:20:35.154Z,9976
2017-06-23T05:21:35.207Z,9948
2017-06-23T05:22:35.206Z,10736
2017-06-23T05:23:35.207Z,11312
2017-06-23T05:24:35.223Z,11176
2017-06-23T05:25:35.209Z,10568
2017-06-23T05:26:35.209Z,9156
2017-06-23T05:27:35.196Z,8832
2017-06-23T05:28:35.217Z,8972
2017-06-23T05:29:35.221Z,8668
2017-06-23T05:30:35.220Z,9228
2017-06-23T05:31:35.172Z,10060
2017-06-23T05:32:35.212Z,10476
2017-06-23T05:33:35.147Z,10000
2017-06-23T05:34:35.201Z,11200
2017-06-23T05:35:35.196Z,14840
2017-06-23T05:36:35.132Z,19220
2017-06-23T05:37:35.200Z,18968
2017-06-23T05:38:35.196Z,16524
2017-06-23T05:39:35.205Z,15404
2017-06-23T05:40:35.201Z,13788
2017-06-23T05:41:35.200Z,11888
2017-06-23T05:42:35.206Z,10264
2017-06-23T05:43:35.204Z,11636
2017-06-23T05:44:35.286Z,14932
2017-06-23T05:45:35.198Z,15868
2017-06-23T05:46:35.215Z,16592
2017-06-23T05:47:35.200Z,17884
2017-06-23T05:48:35.201Z,18896
2017-06-23T05:49:35.201Z,19592
2017-06-23T05:50:35.205Z,19952
2017-06-23T05:51:35.286Z,19760
2017-06-23T05:52:35.204Z,20800
2017-06-23T05:53:35.132Z,20864
2017-06-23T05:54:35.201Z,21056
2017-06-23T05:55:35.205Z,21312
2017-06-23T05:56:35.320Z,20340
2017-06-23T05:57:35.133Z,18936
2017-06-23T05:58:35.210Z,17616
2017-06-23T05:59:35.181Z,17280
2017-06-23T06:00:35.177Z,14816
2017-06-23T06:01:35.136Z,14384
2017-06-23T06:02:35.139Z,15216
2017-06-23T06:03:35.121Z,17684
2017-06-23T06:04:35.140Z,18936
2017-06-23T06:05:35.134Z,19788
2017-06-23T06:06:35.138Z,17432
2017-06-23T06:07:35.215Z,18160
2017-06-23T06:08:35.219Z,18620
2017-06-23T06:09:35.215Z,20352
2017-06-23T06:10:35.216Z,18456
2017-06-23T06:11:35.230Z,22464
2017-06-23T06:12:35.216Z,23072
2017-06-23T06:13:35.216Z,24096
2017-06-23T06:14:35.218Z,23104
2017-06-23T06:15:35.219Z,21568
2017-06-23T06:16:35.217Z,21472
2017-06-23T06:17:35.223Z,20896
2017-06-23T06:18:35.218Z,16396
2017-06-23T06:19:35.223Z,16648
2017-06-23T06:20:35.225Z,17112
2017-06-23T06:21:35.221Z,18984
2017-06-23T06:22:35.224Z,20896
2017-06-23T06:23:35.223Z,22112
2017-06-23T06:24:35.221Z,22528
2017-06-23T06:25:35.240Z,21920
2017-06-23T06:26:35.226Z,20028
2017-06-23T06:27:35.249Z,17472
2017-06-23T06:28:35.162Z,16012
2017-06-23T06:29:35.157Z,14968
2017-06-23T06:30:35.242Z,16084
2017-06-23T06:31:35.168Z,17452
2017-06-23T06:32:35.157Z,21184
2017-06-23T06:33:35.251Z,27200
2017-06-23T06:34:35.226Z,31936
2017-06-23T06:35:35.238Z,33632
2017-06-23T06:36:35.209Z,31392
2017-06-23T06:37:35.251Z,27808
2017-06-23T06:38:35.247Z,27488
2017-06-23T06:39:35.242Z,29760
2017-06-23T06:40:35.256Z,31616
2017-06-23T06:41:35.214Z,34784
2017-06-23T06:42:35.253Z,43552
2017-06-23T06:43:35.252Z,66432
2017-06-23T06:44:35.260Z,25632
2017-06-23T06:45:35.167Z,22752
2017-06-23T06:46:35.173Z,21088
2017-06-23T06:47:35.237Z,23328
2017-06-23T06:48:35.237Z,23680
2017-06-23T06:49:35.239Z,24640
2017-06-23T06:50:35.239Z,26496
2017-06-23T06:51:35.240Z,29024
2017-06-23T06:52:35.162Z,36032
2017-06-23T06:53:35.243Z,92960
2017-06-23T06:54:35.240Z,69856
2017-06-23T06:55:35.239Z,43552
2017-06-23T06:56:35.240Z,30240
2017-06-23T06:57:35.171Z,21056
2017-06-23T06:58:35.270Z,18056
2017-06-23T06:59:35.256Z,21440
2017-06-23T07:00:35.259Z,28832
2017-06-23T07:01:35.267Z,35616
2017-06-23T07:02:35.239Z,35872
2017-06-23T07:03:35.270Z,35040
2017-06-23T07:04:35.241Z,35520
2017-06-23T07:05:35.253Z,33696
2017-06-23T07:06:35.262Z,35296
2017-06-23T07:07:35.312Z,47552
2017-06-23T07:08:35.218Z,42624
2017-06-23T07:09:35.264Z,48960
2017-06-23T07:10:35.269Z,72320
2017-06-23T07:11:35.257Z,90112
2017-06-23T07:12:35.200Z,49664
2017-06-23T07:13:35.261Z,100096
2017-06-23T07:14:35.229Z,97664
2017-06-23T07:15:35.271Z,102048
2017-06-23T07:16:35.273Z,102592
2017-06-23T07:17:35.244Z,54240
2017-06-23T07:18:35.276Z,45184
2017-06-23T07:19:35.186Z,59264
2017-06-23T07:20:35.247Z,60128
2017-06-23T07:21:35.280Z,80096
2017-06-23T07:22:35.476Z,54208
2017-06-23T07:23:35.275Z,38048
2017-06-23T07:24:35.272Z,31424
2017-06-23T07:25:35.275Z,34048
2017-06-23T07:26:35.195Z,35392
2017-06-23T07:27:35.237Z,37088
2017-06-23T07:28:35.271Z,35424
2017-06-23T07:29:35.276Z,34016
2017-06-23T07:30:35.270Z,33152
2017-06-23T07:31:35.195Z,33152
2017-06-23T07:32:35.276Z,42336
2017-06-23T07:33:35.200Z,50240
2017-06-23T07:34:35.272Z,49152
2017-06-23T07:35:35.198Z,49856
2017-06-23T07:36:35.287Z,63328
2017-06-23T07:37:35.385Z,57792
2017-06-23T07:38:35.259Z,78944
2017-06-23T07:39:35.284Z,59456
2017-06-23T07:40:35.282Z,45056
2017-06-23T07:41:35.204Z,42432
2017-06-23T07:42:35.280Z,45856
2017-06-23T07:43:35.291Z,47296
2017-06-23T07:44:35.292Z,48160
2017-06-23T07:45:35.194Z,54272
2017-06-23T07:46:35.246Z,61120
2017-06-23T07:47:35.255Z,65536
2017-06-23T07:48:35.262Z,70816
2017-06-23T07:49:35.256Z,61984
2017-06-23T07:50:35.255Z,59488
2017-06-23T07:51:35.259Z,54752
2017-06-23T07:52:35.256Z,52640
2017-06-23T07:53:35.258Z,52704
2017-06-23T07:54:35.256Z,52800
2017-06-23T07:55:35.261Z,55168
2017-06-23T07:56:35.257Z,55840
2017-06-23T07:57:35.271Z,56352
2017-06-23T07:58:35.271Z,57760
2017-06-23T07:59:35.277Z,56928
2017-06-23T08:00:35.278Z,59072
2017-06-23T08:01:35.275Z,61408
2017-06-23T08:02:35.279Z,59584
2017-06-23T08:03:35.275Z,55904
2017-06-23T08:04:35.276Z,56672
2017-06-23T08:05:35.273Z,60640
2017-06-23T08:06:35.288Z,63584
2017-06-23T08:07:35.280Z,66752
2017-06-23T08:08:35.281Z,71232
2017-06-23T08:09:35.281Z,71936
2017-06-23T08:10:35.279Z,71424
2017-06-23T08:11:35.284Z,70240
2017-06-23T08:12:35.284Z,75104
2017-06-23T08:13:35.283Z,59968
2017-06-23T08:14:35.281Z,58560
2017-06-23T08:15:35.286Z,60768
2017-06-23T08:16:35.282Z,59840
2017-06-23T08:17:35.284Z,54720
2017-06-23T08:18:35.282Z,49280
2017-06-23T08:19:35.287Z,45728
2017-06-23T08:20:35.284Z,44736
2017-06-23T08:21:35.286Z,46784
2017-06-23T08:22:35.288Z,44992
2017-06-23T08:23:35.288Z,41952
2017-06-23T08:24:35.287Z,44992
2017-06-23T08:25:35.291Z,45792
2017-06-23T08:26:35.286Z,39584
2017-06-23T08:27:35.289Z,43776
2017-06-23T08:28:35.307Z,49792
2017-06-23T08:29:35.310Z,52512
2017-06-23T08:30:35.268Z,54336
2017-06-23T08:31:35.316Z,58112
2017-06-23T08:32:35.224Z,62016
2017-06-23T08:33:35.316Z,64896
2017-06-23T08:34:35.310Z,67808
2017-06-23T08:35:35.306Z,68448
2017-06-23T08:36:35.237Z,68960
2017-06-23T08:37:35.291Z,68064
2017-06-23T08:38:35.235Z,72096
2017-06-23T08:39:35.315Z,66624
2017-06-23T08:40:35.310Z,63904
2017-06-23T08:41:35.312Z,63936
2017-06-23T08:42:35.253Z,67968
2017-06-23T08:43:35.242Z,65824
2017-06-23T08:44:35.232Z,66624
2017-06-23T08:45:35.327Z,62528
2017-06-23T08:46:35.243Z,58944
2017-06-23T08:47:35.233Z,60224
2017-06-23T08:48:35.237Z,57600
2017-06-23T08:49:35.242Z,58144
2017-06-23T08:50:35.241Z,57696
2017-06-23T08:51:35.319Z,58464
2017-06-23T08:52:35.239Z,60000
2017-06-23T08:53:35.278Z,57792
2017-06-23T08:54:35.406Z,56288
2017-06-23T08:55:35.319Z,55936
2017-06-23T08:56:35.321Z,55776
2017-06-23T08:57:35.238Z,57536
2017-06-23T08:58:35.307Z,62944
2017-06-23T08:59:35.307Z,60096
2017-06-23T09:00:35.311Z,61888
2017-06-23T09:01:35.308Z,71168
2017-06-23T09:02:35.308Z,89600
2017-06-23T09:03:35.308Z,101760
2017-06-23T09:04:35.312Z,98592
2017-06-23T09:05:35.309Z,99552
2017-06-23T09:06:35.317Z,98784
2017-06-23T09:07:35.310Z,152224
2017-06-23T09:08:35.311Z,116480
2017-06-23T09:09:35.308Z,98528
2017-06-23T09:10:35.310Z,75168
2017-06-23T09:11:35.309Z,69920
2017-06-23T09:12:35.315Z,69024
2017-06-23T09:13:35.271Z,66240
2017-06-23T09:14:35.282Z,61504
2017-06-23T09:15:35.277Z,63968
2017-06-23T09:16:35.232Z,64832
2017-06-23T09:17:35.278Z,67808
2017-06-23T09:18:35.238Z,67520
2017-06-23T09:19:35.278Z,69280
2017-06-23T09:20:35.235Z,73376
2017-06-23T09:21:35.240Z,75552
2017-06-23T09:22:35.236Z,76288
2017-06-23T09:23:35.434Z,65504
2017-06-23T09:24:35.339Z,75872
2017-06-23T09:25:35.348Z,81408
2017-06-23T09:26:35.350Z,72064
2017-06-23T09:27:35.333Z,72640
2017-06-23T09:28:35.334Z,114240
2017-06-23T09:29:35.278Z,146784
2017-06-23T09:30:35.340Z,108832
2017-06-23T09:31:35.349Z,140928
2017-06-23T09:33:35.316Z,88576
2017-06-23T09:34:35.315Z,158240
2017-06-23T09:35:35.317Z,89312
2017-06-23T09:36:35.320Z,169408
2017-06-23T09:37:35.318Z,99712
2017-06-23T09:38:35.314Z,122912
2017-06-23T09:39:35.318Z,157824
2017-06-23T09:40:35.318Z,80128
2017-06-23T09:41:35.320Z,91392
2017-06-23T09:42:35.319Z,83072
2017-06-23T09:43:35.311Z,68576
2017-06-23T09:44:35.260Z,79520
2017-06-23T09:45:35.360Z,91648
2017-06-23T09:46:35.360Z,78496
2017-06-23T09:47:35.366Z,105088
2017-06-23T09:48:35.357Z,162816
2017-06-23T09:49:35.354Z,193664
2017-06-23T09:50:35.289Z,106848
2017-06-23T09:51:35.319Z,157824
2017-06-23T09:52:35.352Z,160352
2017-06-23T09:53:35.338Z,143520
2017-06-23T09:54:35.343Z,124800
2017-06-23T09:55:35.354Z,121920
2017-06-23T09:56:35.352Z,81024
2017-06-23T09:57:35.342Z,107680
2017-06-23T09:58:35.356Z,90528
2017-06-23T09:59:35.362Z,94752
2017-06-23T10:00:35.342Z,89824
2017-06-23T10:01:35.359Z,80192
2017-06-23T10:02:35.357Z,87072
2017-06-23T10:03:35.355Z,72768
2017-06-23T10:04:35.370Z,73696
2017-06-23T10:05:35.365Z,75904
2017-06-23T10:06:35.370Z,77728
2017-06-23T10:07:35.301Z,79136
2017-06-23T10:08:35.346Z,93056
2017-06-23T10:09:35.279Z,100704
2017-06-23T10:10:35.374Z,104992
2017-06-23T10:11:35.369Z,108672
2017-06-23T10:12:35.372Z,109312
2017-06-23T10:13:35.286Z,84576
2017-06-23T10:15:35.373Z,104736
2017-06-23T10:16:35.360Z,96384
2017-06-23T10:17:35.353Z,83200
2017-06-23T10:18:35.473Z,104096
2017-06-23T10:19:35.307Z,106624
2017-06-23T10:20:35.340Z,108992
2017-06-23T10:21:35.372Z,93120
2017-06-23T10:22:35.300Z,108448
2017-06-23T10:23:35.376Z,107648
2017-06-23T10:24:35.377Z,110560
2017-06-23T10:25:35.286Z,119072
2017-06-23T10:26:35.375Z,109888
2017-06-23T10:27:35.381Z,118624
2017-06-23T10:28:35.374Z,107904
2017-06-23T10:29:35.360Z,101664
2017-06-23T10:30:35.348Z,88320
2017-06-23T10:31:35.376Z,80768
2017-06-23T10:32:35.385Z,75424
2017-06-23T10:33:35.302Z,76800
2017-06-23T10:34:35.372Z,85504
2017-06-23T10:35:35.378Z,87744
2017-06-23T10:36:35.341Z,92032
2017-06-23T10:37:35.387Z,79648
2017-06-23T10:38:35.350Z,104832
2017-06-23T10:39:35.367Z,80832
2017-06-23T10:40:35.384Z,80704
2017-06-23T10:41:35.389Z,77344
2017-06-23T10:42:35.354Z,72224
2017-06-23T10:43:35.351Z,71744
2017-06-23T10:44:35.351Z,74112
2017-06-23T10:45:35.390Z,93536
2017-06-23T10:46:35.388Z,111200
2017-06-23T10:47:35.386Z,89088
2017-06-23T10:48:35.308Z,115200
2017-06-23T10:49:35.301Z,128544
2017-06-23T10:50:35.391Z,131328
2017-06-23T10:51:35.356Z,123872
2017-06-23T10:52:35.504Z,107776
2017-06-23T10:53:35.387Z,94976
2017-06-23T10:54:35.353Z,110016
2017-06-23T10:55:35.397Z,101248
2017-06-23T10:56:35.362Z,89536
2017-06-23T10:57:35.396Z,90720
2017-06-23T10:58:35.396Z,83200
2017-06-23T10:59:35.391Z,66848
2017-06-23T11:00:35.360Z,87584
2017-06-23T11:01:35.359Z,102944
2017-06-23T11:02:35.383Z,99200
2017-06-23T11:03:35.378Z,94112
2017-06-23T11:04:35.377Z,83936
2017-06-23T11:05:35.380Z,88832
2017-06-23T11:06:35.382Z,66848
2017-06-23T11:07:35.395Z,59488
2017-06-23T11:08:35.380Z,59744
2017-06-23T11:09:35.389Z,64800
2017-06-23T11:10:35.382Z,74400
2017-06-23T11:11:35.385Z,77504
2017-06-23T11:12:35.384Z,106976
2017-06-23T11:13:35.385Z,104160
2017-06-23T11:14:35.387Z,86688
2017-06-23T11:15:35.386Z,89568
2017-06-23T11:16:35.385Z,96032
2017-06-23T11:17:35.394Z,93472
2017-06-23T11:18:35.400Z,102816
2017-06-23T11:19:35.388Z,106816
2017-06-23T11:20:35.405Z,106976
2017-06-23T11:21:35.388Z,104512
2017-06-23T11:22:35.391Z,83168
2017-06-23T11:23:35.475Z,81408
2017-06-23T11:24:35.318Z,112672
2017-06-23T11:25:35.407Z,114656
2017-06-23T11:26:35.364Z,120672
2017-06-23T11:27:35.405Z,113408
2017-06-23T11:28:35.421Z,118592
2017-06-23T11:29:35.327Z,125120
2017-06-23T11:30:35.410Z,136384
2017-06-23T11:31:35.414Z,141408
2017-06-23T11:32:35.344Z,147488
2017-06-23T11:33:35.420Z,122560
2017-06-23T11:34:35.408Z,117120
2017-06-23T11:35:35.329Z,112992
2017-06-23T11:36:35.333Z,121152
2017-06-23T11:37:35.424Z,114048
2017-06-23T11:38:35.350Z,90784
2017-06-23T11:39:35.379Z,128480
2017-06-23T11:40:35.383Z,128448
2017-06-23T11:41:35.396Z,145088
2017-06-23T11:42:35.425Z,131552
2017-06-23T11:43:35.381Z,127360
2017-06-23T11:44:35.413Z,158336
2017-06-23T11:45:35.394Z,160224
2017-06-23T11:46:35.336Z,165664
2017-06-23T11:47:35.401Z,162272
2017-06-23T11:48:35.353Z,154560
2017-06-23T11:49:35.387Z,91904
2017-06-23T11:50:35.430Z,116320
2017-06-23T11:51:35.419Z,151104
2017-06-23T11:52:35.415Z,122528
2017-06-23T11:53:35.391Z,76160
2017-06-23T11:54:35.366Z,69088
2017-06-23T11:55:35.368Z,65504
2017-06-23T11:56:35.409Z,65984
2017-06-23T11:57:35.375Z,66848
2017-06-23T11:58:35.372Z,63264
2017-06-23T11:59:35.312Z,61024
2017-06-23T12:00:35.370Z,63968
2017-06-23T12:01:35.325Z,107040
2017-06-23T12:02:35.384Z,115168
2017-06-23T12:03:35.340Z,105856
2017-06-23T12:04:35.400Z,111584
2017-06-23T12:05:35.400Z,109024
2017-06-23T12:06:35.400Z,113568
2017-06-23T12:07:35.404Z,121504
2017-06-23T12:08:35.398Z,131744
2017-06-23T12:09:35.401Z,130720
2017-06-23T12:10:35.400Z,129472
2017-06-23T12:11:35.400Z,82656
2017-06-23T12:12:35.403Z,108704
2017-06-23T12:13:35.403Z,77120
2017-06-23T12:14:35.358Z,67232
2017-06-23T12:15:35.443Z,60064
2017-06-23T12:16:35.435Z,54848
2017-06-23T12:17:35.436Z,50560
2017-06-23T12:18:35.352Z,47648
2017-06-23T12:19:35.351Z,46016
2017-06-23T12:20:35.432Z,47072
2017-06-23T12:21:35.418Z,51616
2017-06-23T12:22:35.435Z,56352
2017-06-23T12:23:35.437Z,55680
2017-06-23T12:24:35.445Z,57120
2017-06-23T12:25:35.451Z,60256
2017-06-23T12:26:35.447Z,64000
2017-06-23T12:27:35.444Z,72768
2017-06-23T12:28:35.358Z,65472
2017-06-23T12:29:35.439Z,68416
2017-06-23T12:30:35.404Z,72736
2017-06-23T12:31:35.406Z,69248
2017-06-23T12:32:35.443Z,71584
2017-06-23T12:33:35.365Z,74688
2017-06-23T12:34:35.414Z,74848
2017-06-23T12:35:35.415Z,70656
2017-06-23T12:36:35.417Z,68448
2017-06-23T12:37:35.445Z,63744
2017-06-23T12:38:35.421Z,61408
2017-06-23T12:39:35.422Z,60992
2017-06-23T12:40:35.417Z,61536
2017-06-23T12:41:35.422Z,62496
2017-06-23T12:42:35.448Z,58752
2017-06-23T12:43:35.419Z,56160
2017-06-23T12:44:35.414Z,55520
2017-06-23T12:45:35.370Z,57472
2017-06-23T12:46:35.419Z,61440
2017-06-23T12:47:35.452Z,66112
2017-06-23T12:48:35.454Z,73760
2017-06-23T12:49:35.467Z,72576
2017-06-23T12:50:35.373Z,72960
2017-06-23T12:51:35.465Z,73568
2017-06-23T12:52:35.371Z,72608
2017-06-23T12:53:35.457Z,68672
2017-06-23T12:54:35.428Z,71584
2017-06-23T12:55:35.429Z,81088
2017-06-23T12:56:35.428Z,73600
2017-06-23T12:57:35.431Z,71296
2017-06-23T12:58:35.430Z,78784
2017-06-23T12:59:35.431Z,80576
2017-06-23T13:00:35.432Z,78400
2017-06-23T13:01:35.536Z,76960
2017-06-23T13:02:35.437Z,80128
2017-06-23T13:03:35.436Z,80768
2017-06-23T13:05:35.464Z,72928
2017-06-23T13:06:35.442Z,71744
2017-06-23T13:07:35.458Z,72128
2017-06-23T13:08:35.472Z,75488
2017-06-23T13:09:35.472Z,75584
2017-06-23T13:10:35.384Z,78976
2017-06-23T13:11:35.467Z,74752
2017-06-23T13:12:35.382Z,80288
2017-06-23T13:13:35.450Z,87264
2017-06-23T13:14:35.448Z,85280
2017-06-23T13:15:35.376Z,78208
2017-06-23T13:16:35.469Z,63136
2017-06-23T13:17:35.472Z,60544
2017-06-23T13:18:35.438Z,56672
2017-06-23T13:19:35.385Z,76000
2017-06-23T13:20:35.471Z,83424
2017-06-23T13:21:35.450Z,89856